createdAt,value
2022-10-28T00:02:14.538Z,13.28
2022-10-28T00:06:08.523Z,13.29
2022-10-28T00:09:51.702Z,13.31
2022-10-28T00:13:34.903Z,13.29
2022-10-28T00:17:20.313Z,13.21
2022-10-28T00:21:09.488Z,13.05
2022-10-28T00:24:52.556Z,13.02
2022-10-28T00:28:36.165Z,13.00
2022-10-28T00:32:22.101Z,13.00
2022-10-28T00:36:14.566Z,13.01
2022-10-28T00:39:57.478Z,13.00
2022-10-28T00:43:49.117Z,13.00
2022-10-28T00:47:42.766Z,12.99
2022-10-28T00:51:26.859Z,13.01
2022-10-28T00:55:10.407Z,13.04
2022-10-28T00:58:56.635Z,13.08
2022-10-28T01:02:46.775Z,13.14
2022-10-28T01:06:30.438Z,13.17
2022-10-28T01:10:14.842Z,13.15
2022-10-28T01:14:37.112Z,13.13
2022-10-28T01:18:29.710Z,13.17
2022-10-28T01:22:19.672Z,13.22
2022-10-28T01:26:27.991Z,13.27
2022-10-28T01:30:14.990Z,13.31
2022-10-28T01:34:09.808Z,13.36
2022-10-28T01:38:03.080Z,13.39
2022-10-28T01:41:50.138Z,13.40
2022-10-28T01:45:39.866Z,13.39
2022-10-28T01:49:29.624Z,13.38
2022-10-28T01:53:14.647Z,13.38
2022-10-28T01:56:58.354Z,13.39
2022-10-28T02:00:45.277Z,13.40
2022-10-28T02:04:30.682Z,13.44
2022-10-28T02:08:24.255Z,13.46
2022-10-28T02:12:28.455Z,13.48
2022-10-28T02:16:17.701Z,13.52
2022-10-28T02:20:11.268Z,13.53
2022-10-28T02:23:57.325Z,13.56
2022-10-28T02:27:44.762Z,13.52
2022-10-28T02:31:31.727Z,13.45
2022-10-28T02:35:18.021Z,13.42
2022-10-28T02:39:02.250Z,13.41
2022-10-28T02:42:48.303Z,13.38
2022-10-28T02:46:32.151Z,13.35
2022-10-28T02:50:24.186Z,13.31
2022-10-28T02:54:11.545Z,13.29
2022-10-28T02:57:54.528Z,13.29
2022-10-28T03:01:37.755Z,13.27
2022-10-28T03:05:21.996Z,13.20
2022-10-28T03:09:04.982Z,13.15
2022-10-28T03:12:47.981Z,13.12
2022-10-28T03:16:30.815Z,13.09
2022-10-28T03:20:13.510Z,13.09
2022-10-28T03:23:57.572Z,13.06
2022-10-28T03:27:41.361Z,13.00
2022-10-28T03:31:24.719Z,12.98
2022-10-28T03:35:08.750Z,12.94
2022-10-28T03:38:57.319Z,12.89
2022-10-28T03:42:43.177Z,12.87
2022-10-28T03:46:26.036Z,12.83
2022-10-28T03:50:09.802Z,12.81
2022-10-28T03:53:54.445Z,12.81
2022-10-28T03:57:37.545Z,12.85
2022-10-28T04:01:24.625Z,12.81
2022-10-28T04:05:08.019Z,12.78
2022-10-28T04:08:54.133Z,12.78
2022-10-28T04:12:36.926Z,12.78
2022-10-28T04:16:20.933Z,12.76
2022-10-28T04:20:03.845Z,12.76
2022-10-28T04:23:46.700Z,12.77
2022-10-28T04:27:31.669Z,12.80
2022-10-28T04:31:14.479Z,12.82
2022-10-28T04:34:58.477Z,12.82
2022-10-28T04:38:41.109Z,12.83
2022-10-28T04:42:24.201Z,12.83
2022-10-28T04:46:07.000Z,12.83
2022-10-28T04:49:49.751Z,12.83
2022-10-28T04:53:34.009Z,12.79
2022-10-28T04:57:17.639Z,12.77
2022-10-28T05:01:00.323Z,12.71
2022-10-28T05:04:43.120Z,12.66
2022-10-28T05:08:25.814Z,12.65
2022-10-28T05:12:09.962Z,12.63
2022-10-28T05:15:52.991Z,12.58
2022-10-28T05:19:35.816Z,12.52
2022-10-28T05:23:18.514Z,12.50
2022-10-28T05:27:01.298Z,12.46
2022-10-28T05:30:46.045Z,12.40
2022-10-28T05:34:28.980Z,12.33
2022-10-28T05:38:14.599Z,12.29
2022-10-28T05:41:57.298Z,12.29
2022-10-28T05:45:44.474Z,12.33
2022-10-28T05:49:31.083Z,12.42
2022-10-28T05:53:13.844Z,12.52
2022-10-28T05:56:56.467Z,12.60
2022-10-28T06:00:39.200Z,12.70
2022-10-28T06:04:21.883Z,12.77
2022-10-28T06:08:06.623Z,12.85
2022-10-28T06:11:48.179Z,12.91
2022-10-28T06:15:31.071Z,12.97
2022-10-28T06:19:13.865Z,13.02
2022-10-28T06:22:56.803Z,13.10
2022-10-28T06:26:43.403Z,13.16
2022-10-28T06:30:27.086Z,13.19
2022-10-28T06:34:10.324Z,13.24
2022-10-28T06:37:54.594Z,13.28
2022-10-28T06:41:37.627Z,13.35
2022-10-28T06:45:23.661Z,13.40
2022-10-28T06:49:09.036Z,13.48
2022-10-28T06:52:51.852Z,13.52
2022-10-28T06:56:34.542Z,13.53
2022-10-28T07:00:17.748Z,13.56
2022-10-28T07:04:02.011Z,13.60
2022-10-28T07:07:44.909Z,13.70
2022-10-28T07:11:27.716Z,13.78
2022-10-28T07:15:11.521Z,13.86
2022-10-28T07:18:54.163Z,13.97
2022-10-28T07:22:38.213Z,14.09
2022-10-28T07:26:21.018Z,14.25
2022-10-28T07:30:03.673Z,14.41
2022-10-28T07:33:46.405Z,14.62
2022-10-28T07:37:29.078Z,14.76
2022-10-28T07:41:13.129Z,14.91
2022-10-28T07:44:55.787Z,15.07
2022-10-28T07:48:38.970Z,15.27
2022-10-28T07:52:21.643Z,15.47
2022-10-28T07:56:07.031Z,15.71
2022-10-28T07:59:51.089Z,15.93
2022-10-28T08:03:38.570Z,16.14
2022-10-28T08:07:24.274Z,16.40
2022-10-28T08:11:11.320Z,16.65
2022-10-28T08:14:56.200Z,16.88
2022-10-28T08:18:42.099Z,17.06
2022-10-28T08:22:24.876Z,17.25
2022-10-28T08:26:07.754Z,17.41
2022-10-28T08:29:50.499Z,17.56
2022-10-28T08:33:34.552Z,17.74
2022-10-28T08:37:17.413Z,17.85
2022-10-28T08:41:07.520Z,17.96
2022-10-28T08:45:05.001Z,18.04
2022-10-28T08:48:49.061Z,18.08
2022-10-28T08:52:35.265Z,18.12
2022-10-28T08:56:32.860Z,18.13
2022-10-28T09:00:22.006Z,18.14
2022-10-28T09:04:11.303Z,18.15
2022-10-28T09:07:54.977Z,18.15
2022-10-28T09:11:54.546Z,18.18
2022-10-28T09:19:39.461Z,18.21
2022-10-28T09:23:28.242Z,18.23
2022-10-28T09:27:17.434Z,18.28
2022-10-28T09:31:05.859Z,18.30
2022-10-28T09:34:51.166Z,18.36
2022-10-28T09:38:35.707Z,18.44
2022-10-28T09:42:23.455Z,18.57
2022-10-28T09:46:11.942Z,18.78
2022-10-28T09:49:59.022Z,18.94
2022-10-28T09:53:45.016Z,19.10
2022-10-28T09:57:31.360Z,19.24
2022-10-28T10:01:15.058Z,19.39
2022-10-28T10:05:00.491Z,19.53
2022-10-28T10:08:44.585Z,19.76
2022-10-28T10:12:28.158Z,19.82
2022-10-28T10:16:15.816Z,19.89
2022-10-28T10:20:02.879Z,20.02
2022-10-28T10:23:47.073Z,20.17
2022-10-28T10:27:30.498Z,20.25
2022-10-28T10:31:19.956Z,20.34
2022-10-28T10:35:09.425Z,20.41
2022-10-28T10:38:54.072Z,20.58
2022-10-28T10:42:42.688Z,20.73
2022-10-28T10:46:34.624Z,20.91
2022-10-28T10:54:20.099Z,21.19
2022-10-28T10:58:03.372Z,21.29
2022-10-28T11:01:49.216Z,21.35
2022-10-28T11:05:38.066Z,21.41
2022-10-28T11:09:25.223Z,21.48
2022-10-28T11:13:27.077Z,21.57
2022-10-28T11:17:24.931Z,21.72
2022-10-28T11:21:17.519Z,21.92
2022-10-28T11:25:17.640Z,22.12
2022-10-28T11:29:10.967Z,22.18
2022-10-28T11:33:08.030Z,22.19
2022-10-28T11:37:00.808Z,22.29
2022-10-28T11:41:07.299Z,22.44
2022-10-28T11:44:54.558Z,22.58
2022-10-28T11:49:01.612Z,22.65
2022-10-28T11:52:59.939Z,22.69
2022-10-28T11:57:02.039Z,22.81
2022-10-28T12:00:51.280Z,22.96
2022-10-28T12:04:54.097Z,23.18
2022-10-28T12:08:45.782Z,23.41
2022-10-28T12:12:32.032Z,23.66
2022-10-28T12:16:19.546Z,23.97
2022-10-28T12:20:04.358Z,24.19
2022-10-28T12:23:49.567Z,24.35
2022-10-28T12:27:34.660Z,24.59
2022-10-28T12:31:21.825Z,24.81
2022-10-28T12:35:07.727Z,24.77
2022-10-28T12:38:57.474Z,24.96
2022-10-28T12:42:42.434Z,25.12
2022-10-28T12:46:31.611Z,25.29
2022-10-28T12:50:21.113Z,25.43
2022-10-28T12:54:12.129Z,25.45
2022-10-28T12:58:00.071Z,25.47
2022-10-28T13:01:45.067Z,25.38
2022-10-28T13:05:33.121Z,25.30
2022-10-28T13:09:36.343Z,25.28
2022-10-28T13:13:42.162Z,25.25
2022-10-28T13:17:35.915Z,25.18
2022-10-28T13:21:29.181Z,25.07
2022-10-28T13:25:24.670Z,24.95
2022-10-28T13:29:08.378Z,24.96
2022-10-28T13:33:00.701Z,25.13
2022-10-28T13:36:45.743Z,25.36
2022-10-28T13:41:01.785Z,25.60
2022-10-28T13:44:50.469Z,25.81
2022-10-28T13:48:54.006Z,25.98
2022-10-28T13:52:38.603Z,26.14
2022-10-28T13:56:26.465Z,26.24
2022-10-28T14:00:35.896Z,26.36
2022-10-28T14:04:24.586Z,26.30
2022-10-28T14:08:08.556Z,26.16
2022-10-28T14:12:05.592Z,26.01
2022-10-28T14:15:50.869Z,25.98
2022-10-28T14:19:33.766Z,26.10
2022-10-28T14:23:53.785Z,26.27
2022-10-28T14:27:43.126Z,26.28
2022-10-28T14:31:51.045Z,26.22
2022-10-28T14:35:40.074Z,26.12
2022-10-28T14:39:36.976Z,26.00
2022-10-28T14:43:38.202Z,25.77
2022-10-28T14:47:36.650Z,25.61
2022-10-28T14:51:21.272Z,25.48
2022-10-28T14:55:07.210Z,25.37
2022-10-28T14:58:50.314Z,25.25
2022-10-28T15:02:35.683Z,25.17
2022-10-28T15:06:26.787Z,25.02
2022-10-28T15:10:15.968Z,24.83
2022-10-28T15:14:12.830Z,24.62
2022-10-28T15:17:57.145Z,24.47
2022-10-28T15:21:39.803Z,24.34
2022-10-28T15:25:23.754Z,24.16
2022-10-28T15:29:06.608Z,24.04
2022-10-28T15:32:49.360Z,23.89
2022-10-28T15:36:33.584Z,23.77
2022-10-28T15:40:22.199Z,23.71
2022-10-28T15:44:05.563Z,23.63
2022-10-28T15:47:48.582Z,23.51
2022-10-28T15:51:31.211Z,23.35
2022-10-28T15:55:41.690Z,23.18
2022-10-28T15:59:33.570Z,22.97
2022-10-28T16:03:26.232Z,22.79
2022-10-28T16:07:09.563Z,22.62
2022-10-28T16:10:56.015Z,22.44
2022-10-28T16:14:40.025Z,22.24
2022-10-28T16:18:24.016Z,22.00
2022-10-28T16:22:06.953Z,21.78
2022-10-28T16:25:49.771Z,21.62
2022-10-28T16:29:33.825Z,21.49
2022-10-28T16:33:16.567Z,21.36
2022-10-28T16:36:59.321Z,21.27
2022-10-28T16:40:57.349Z,21.21
2022-10-28T16:44:41.433Z,21.15
2022-10-28T16:48:25.790Z,21.06
2022-10-28T16:52:15.237Z,20.98
2022-10-28T16:55:59.097Z,20.88
2022-10-28T16:59:43.570Z,20.72
2022-10-28T17:03:26.302Z,20.59
2022-10-28T17:07:09.082Z,20.47
2022-10-28T17:10:51.849Z,20.35
2022-10-28T17:14:34.676Z,20.24
2022-10-28T17:18:19.455Z,20.12
2022-10-28T17:22:06.123Z,20.01
2022-10-28T17:25:57.036Z,19.90
2022-10-28T17:29:39.857Z,19.79
2022-10-28T17:33:23.927Z,19.70
2022-10-28T17:37:07.779Z,19.58
2022-10-28T17:40:54.888Z,19.51
2022-10-28T17:44:37.864Z,19.50
2022-10-28T17:48:20.800Z,19.45
2022-10-28T17:52:05.260Z,19.30
2022-10-28T17:55:56.478Z,19.23
2022-10-28T17:59:39.193Z,19.24
2022-10-28T18:03:22.470Z,19.26
2022-10-28T18:07:08.628Z,19.23
2022-10-28T18:10:55.250Z,19.17
2022-10-28T18:14:37.948Z,19.14
2022-10-28T18:18:20.752Z,19.14
2022-10-28T18:22:03.532Z,19.14
2022-10-28T18:25:50.351Z,19.10
2022-10-28T18:29:33.030Z,19.01
2022-10-28T18:33:15.686Z,18.94
2022-10-28T18:36:58.404Z,18.87
2022-10-28T18:40:47.880Z,18.78
2022-10-28T18:44:31.943Z,18.66
2022-10-28T18:48:14.646Z,18.59
2022-10-28T18:51:59.435Z,18.49
2022-10-28T18:55:42.178Z,18.43
2022-10-28T18:59:26.331Z,18.39
2022-10-28T19:03:17.750Z,18.37
2022-10-28T19:07:00.482Z,18.36
2022-10-28T19:10:43.277Z,18.36
2022-10-28T19:14:27.386Z,18.33
2022-10-28T19:18:11.391Z,18.34
2022-10-28T19:21:55.732Z,18.34
2022-10-28T19:25:39.738Z,18.32
2022-10-28T19:29:22.531Z,18.25
2022-10-28T19:33:06.767Z,18.21
2022-10-28T19:36:49.427Z,17.89
2022-10-28T19:40:32.144Z,17.62
2022-10-28T19:44:14.780Z,17.48
2022-10-28T19:48:01.590Z,17.42
2022-10-28T19:51:45.580Z,17.46
2022-10-28T19:55:28.255Z,17.51
2022-10-28T19:59:11.042Z,17.57
2022-10-28T20:02:53.776Z,17.63
2022-10-28T20:06:38.121Z,17.63
2022-10-28T20:10:22.138Z,17.63
2022-10-28T20:14:08.373Z,17.61
2022-10-28T20:17:51.063Z,17.55
2022-10-28T20:21:34.523Z,17.47
2022-10-28T20:25:17.209Z,17.38
2022-10-28T20:29:01.927Z,17.38
2022-10-28T20:32:44.588Z,17.41
2022-10-28T20:36:31.941Z,17.46
2022-10-28T20:40:17.961Z,17.51
2022-10-28T20:44:04.360Z,17.50
2022-10-28T20:47:47.312Z,17.52
2022-10-28T20:51:32.814Z,17.47
2022-10-28T20:55:15.813Z,17.47
2022-10-28T20:58:58.772Z,17.41
2022-10-28T21:02:42.849Z,17.32
2022-10-28T21:06:26.426Z,17.20
2022-10-28T21:10:11.104Z,17.16
2022-10-28T21:13:55.156Z,17.16
2022-10-28T21:17:37.790Z,18.01
2022-10-28T21:21:23.574Z,18.61
2022-10-28T21:25:07.314Z,18.50
2022-10-28T21:28:51.784Z,18.20
2022-10-28T21:32:37.133Z,18.00
2022-10-28T21:36:22.268Z,17.85
2022-10-28T21:40:05.828Z,17.79
2022-10-28T21:43:50.033Z,17.80
2022-10-28T21:47:32.659Z,17.81
2022-10-28T21:51:16.508Z,17.77
2022-10-28T21:55:05.978Z,17.74
2022-10-28T21:58:57.430Z,17.70
2022-10-28T22:02:40.223Z,17.69
2022-10-28T22:06:22.966Z,17.65
2022-10-28T22:10:08.089Z,17.72
2022-10-28T22:13:56.605Z,17.65
2022-10-28T22:17:39.904Z,17.92
2022-10-28T22:21:29.811Z,18.37
2022-10-28T22:25:13.841Z,18.75
2022-10-28T22:28:56.675Z,18.92
2022-10-28T22:32:39.375Z,19.00
2022-10-28T22:36:23.981Z,19.07
2022-10-28T22:40:07.726Z,18.73
2022-10-28T22:43:52.883Z,18.41
2022-10-28T22:47:35.525Z,18.13
2022-10-28T22:51:18.451Z,17.94
2022-10-28T22:55:01.267Z,17.80
2022-10-28T22:58:44.138Z,17.66
2022-10-28T23:02:28.422Z,17.56
2022-10-28T23:06:12.222Z,17.44
2022-10-28T23:09:55.472Z,17.34
2022-10-28T23:13:40.942Z,17.26
2022-10-28T23:17:25.521Z,17.18
2022-10-28T23:21:12.528Z,17.07
2022-10-28T23:24:55.244Z,16.97
2022-10-28T23:28:37.996Z,16.88
2022-10-28T23:32:25.713Z,16.80
2022-10-28T23:36:11.973Z,16.64
2022-10-28T23:39:54.752Z,16.52
2022-10-28T23:43:37.828Z,16.44
2022-10-28T23:47:20.553Z,16.37
2022-10-28T23:51:03.524Z,16.34
2022-10-28T23:54:47.511Z,16.29
2022-10-28T23:58:30.239Z,16.20
